Time;durP1;ratioP1;P1;durP2;ratioP2;P2;SDS_P1;SDS_P2;PMS_P1;PMS_P2;Temp;Humidity;BMP_temperature;BMP_pressure;BME280_temperature;BME280_humidity;BME280_pressure;Samples;Min_cycle;Max_cycle;Signal;HPM_P1;HPM_P2
2020/12/16 06:34:18;;;;;;;4.65;3.50;;;;;;;19.65;42.27;94707.09;4975020;28;20411;-66
2020/12/16 06:36:45;;;;;;;5.25;3.20;;;;;;;18.64;41.26;94706.91;4970960;28;20602;-64
2020/12/16 06:39:21;;;;;;;3.75;3.35;;;;;;;18.20;39.86;94700.41;5002142;28;20049;-64
2020/12/16 06:42:12;;;;;;;5.18;4.68;;;;;;;17.77;39.58;94703.44;5002733;28;20030;-64
2020/12/16 06:44:38;;;;;;;8.75;7.78;;;;;;;17.64;39.41;94700.22;4999233;28;20053;-64
2020/12/16 06:47:03;;;;;;;10.98;9.98;;;;;;;17.49;39.08;94700.63;5001203;28;20034;-64
2020/12/16 06:49:30;;;;;;;9.48;8.57;;;;;;;17.38;38.91;94711.97;5003658;28;20044;-64
2020/12/16 06:52:01;;;;;;;;;;;;;;;17.23;38.38;94720.31;5002281;28;20441;-64
2020/12/16 06:54:36;;;;;;;7.43;6.18;;;;;;;17.18;37.95;94715.69;5032339;28;20997;-64
2020/12/16 06:57:29;;;;;;;5.40;4.72;;;;;;;17.00;37.99;94720.25;5029314;28;20030;-64
2020/12/16 07:00:00;;;;;;;4.78;4.10;;;;;;;16.86;38.13;94717.00;5000729;28;20192;-64
2020/12/16 07:02:35;;;;;;;8.35;4.18;;;;;;;17.10;39.11;94720.50;5012495;28;20036;-62
2020/12/16 07:05:06;;;;;;;6.00;3.95;;;;;;;18.54;40.85;94711.97;4979272;28;20048;-64
2020/12/16 07:07:47;;;;;;;3.97;3.67;;;;;;;19.30;37.66;94713.34;4979140;28;20093;-63
2020/12/16 07:10:44;;;;;;;5.10;3.38;;;;;;;19.55;38.62;94725.44;4984499;28;20120;-65
2020/12/16 07:13:30;;;;;;;7.93;3.47;;;;;;;19.65;39.18;94723.78;4974975;28;20429;-64
2020/12/16 07:16:00;;;;;;;3.85;3.50;;;;;;;19.71;39.99;94727.28;4974482;28;20052;-65
2020/12/16 07:18:40;;;;;;;4.90;3.25;;;;;;;19.77;41.75;94730.84;4982888;28;20065;-65
2020/12/16 07:21:08;;;;;;;4.57;3.25;;;;;;;19.84;42.69;94732.25;4978628;28;20062;-65
2020/12/16 07:23:47;;;;;;;7.50;2.85;;;;;;;20.06;43.46;94735.78;4981705;28;20196;-68
2020/12/16 07:26:18;;;;;;;4.50;2.30;;;;;;;20.48;43.42;94742.47;4988266;28;20104;-67
2020/12/16 07:28:44;;;;;;;3.05;2.30;;;;;;;20.17;43.73;94752.59;5009104;28;20042;-70
2020/12/16 07:31:10;;;;;;;23.85;3.33;;;;;;;20.49;45.06;94744.88;5012822;28;20675;-68
2020/12/16 07:33:36;;;;;;;11.60;3.28;;;;;;;20.70;45.50;94752.03;4975531;28;20165;-67
2020/12/16 07:36:03;;;;;;;11.90;3.40;;;;;;;20.76;45.02;94755.56;4983889;28;20042;-69
2020/12/16 07:38:28;;;;;;;13.98;3.20;;;;;;;20.67;44.81;94752.50;4992457;28;79479;-70
2020/12/16 07:41:45;;;;;;;12.82;3.70;;;;;;;20.78;44.91;94764.03;5051939;27;20400;-72
2020/12/16 07:44:11;;;;;;;;;;;;;;;20.72;44.99;94763.19;5058781;28;20064;-72
2020/12/16 07:46:36;;;;;;;6.60;2.70;;;;;;;21.25;44.25;94761.69;5060590;28;20446;-70
2020/12/16 07:49:02;;;;;;;9.30;3.00;;;;;;;20.85;44.41;94767.31;5040019;28;20046;-69
2020/12/16 07:51:27;;;;;;;11.52;3.22;;;;;;;20.68;44.78;94769.22;5055935;28;20120;-69
2020/12/16 07:53:53;;;;;;;9.65;2.58;;;;;;;20.66;45.38;94774.78;5036905;28;20412;-69
2020/12/16 07:56:20;;;;;;;11.02;2.97;;;;;;;20.61;45.45;94780.03;5067299;28;20056;-74
2020/12/16 07:58:46;;;;;;;8.60;2.67;;;;;;;20.60;45.10;94781.06;5036677;28;20431;-74
2020/12/16 08:01:14;;;;;;;4.40;2.42;;;;;;;20.65;45.09;94773.16;5021411;28;20072;-74
2020/12/16 08:03:40;;;;;;;5.10;2.92;;;;;;;20.64;45.23;94774.25;5054835;28;20161;-75
2020/12/16 08:06:12;;;;;;;14.13;2.83;;;;;;;20.66;45.16;94776.63;5059496;28;20040;-74
2020/12/16 08:08:43;;;;;;;5.05;2.50;;;;;;;20.67;45.11;94781.69;5061412;28;20159;-75
2020/12/16 08:11:16;;;;;;;7.00;3.45;;;;;;;20.68;45.17;94791.25;5062149;28;20048;-74
2020/12/16 08:13:41;;;;;;;8.93;3.08;;;;;;;20.69;45.41;94792.84;5071225;28;20125;-73
2020/12/16 08:16:08;;;;;;;4.05;2.38;;;;;;;20.69;45.59;94798.16;5081683;28;20056;-73
2020/12/16 08:18:33;;;;;;;7.43;2.83;;;;;;;20.71;45.36;94790.75;5087532;28;20044;-75
2020/12/16 08:20:59;;;;;;;7.93;2.55;;;;;;;20.79;46.61;94795.63;5059102;28;20135;-85
2020/12/16 08:23:25;;;;;;;6.83;2.60;;;;;;;20.79;45.50;94803.59;5077787;28;20048;-71
2020/12/16 08:25:51;;;;;;;5.18;2.60;;;;;;;20.77;45.32;94805.66;5024550;28;20045;-77
2020/12/16 08:28:26;;;;;;;6.40;2.55;;;;;;;20.77;45.40;94799.59;5060009;28;20025;-76
2020/12/16 08:30:53;;;;;;;4.53;2.30;;;;;;;20.77;45.58;94813.63;5059934;28;20147;-77
2020/12/16 08:33:20;;;;;;;5.80;2.55;;;;;;;20.76;45.69;94809.41;5058141;28;20021;-76
2020/12/16 08:35:52;;;;;;;6.15;2.90;;;;;;;20.78;45.66;94811.78;5062033;28;20070;-80
2020/12/16 08:38:25;;;;;;;5.03;3.05;;;;;;;20.82;45.64;94814.75;5080200;28;20667;-85
2020/12/16 08:40:56;;;;;;;2.80;1.88;;;;;;;20.83;45.75;94822.47;5065559;28;20029;-87
2020/12/16 08:43:35;;;;;;;5.88;2.35;;;;;;;20.85;46.32;94824.88;5069088;28;20033;-72
2020/12/16 08:46:12;;;;;;;2.88;2.20;;;;;;;20.86;45.92;94831.78;5062334;28;20086;-77
2020/12/16 08:48:39;;;;;;;;;;;;;;;20.85;46.07;94838.13;5061173;28;20032;-75
2020/12/16 08:51:07;;;;;;;5.28;2.15;;;;;;;20.83;46.04;94841.03;5066600;28;19951;-76
2020/12/16 08:53:51;;;;;;;6.90;4.10;;;;;;;20.29;41.33;94834.66;5067039;28;20070;-75
2020/12/16 08:56:20;;;;;;;5.60;3.38;;;;;;;20.32;42.27;94839.50;5055824;28;20040;-76
2020/12/16 08:58:46;;;;;;;4.05;3.65;;;;;;;20.46;43.46;94835.50;5054818;28;20035;-80
2020/12/16 09:01:12;;;;;;;8.00;4.00;;;;;;;20.68;43.48;94833.66;5056834;28;20016;-74
2020/12/16 09:04:19;;;;;;;3.58;2.88;;;;;;;20.79;43.73;94847.88;5054292;28;20512;-86
2020/12/16 09:07:43;;;;;;;6.25;3.13;;;;;;;20.80;44.57;94847.63;5046682;28;20092;-87
2020/12/16 09:10:10;;;;;;;3.17;2.83;;;;;;;20.94;44.57;94852.56;5037263;28;20032;-83
2020/12/16 09:12:51;;;;;;;2.22;2.05;;;;;;;21.08;44.95;94859.13;5060854;28;20032;-92
2020/12/16 09:26:16;;;;;;;2.60;2.25;;;;;;;21.43;44.99;94861.41;5051499;28;20059;-93
2020/12/16 09:39:46;;;;;;;2.90;2.42;;;;;;;21.51;45.49;94869.75;5041852;28;20043;-87
2020/12/16 09:46:59;;;;;;;2.45;2.15;;;;;;;21.60;45.38;94866.66;5011320;28;20068;-91
2020/12/16 09:50:04;;;;;;;4.63;2.80;;;;;;;21.63;45.49;94869.63;5000959;28;20037;-84
2020/12/16 09:53:18;;;;;;;2.60;2.40;;;;;;;21.65;45.59;94872.00;5014634;28;20520;-87
2020/12/16 10:00:33;;;;;;;2.72;2.28;;;;;;;21.65;45.68;94867.50;5026992;28;20055;-89
2020/12/16 10:03:01;;;;;;;2.53;2.22;;;;;;;21.64;45.54;94863.22;5067855;28;20041;-83
2020/12/16 10:05:31;;;;;;;3.53;2.13;;;;;;;21.63;46.09;94855.53;5052992;28;20168;-84
2020/12/16 10:08:06;;;;;;;2.58;1.80;;;;;;;21.59;45.80;94865.84;5052445;28;20041;-92
2020/12/16 10:10:32;;;;;;;2.85;2.10;;;;;;;21.58;45.83;94860.78;5053115;28;20068;-83
2020/12/16 10:12:58;;;;;;;2.17;1.65;;;;;;;21.59;45.91;94843.81;5067691;28;20060;-86
2020/12/16 10:15:24;;;;;;;2.83;1.97;;;;;;;21.58;45.62;94850.16;5047429;28;20056;-89
2020/12/16 10:17:50;;;;;;;4.20;1.87;;;;;;;21.60;45.86;94848.06;5041434;28;20402;-87
2020/12/16 10:20:19;;;;;;;2.60;1.80;;;;;;;21.57;46.05;94851.22;5046248;28;20494;-86
2020/12/16 10:22:44;;;;;;;1.80;1.70;;;;;;;21.56;46.05;94852.25;5057983;28;20048;-83
2020/12/16 10:25:13;;;;;;;2.65;2.30;;;;;;;21.57;45.53;94853.88;5050898;28;20025;-89
2020/12/16 10:27:39;;;;;;;3.03;2.10;;;;;;;21.57;45.53;94846.72;5055827;28;20040;-85
2020/12/16 10:30:06;;;;;;;1.88;1.77;;;;;;;21.59;46.25;94849.13;5051057;28;20394;-84
2020/12/16 10:32:34;;;;;;;3.08;2.10;;;;;;;21.63;46.07;94850.22;5046750;28;20583;-74
2020/12/16 10:34:59;;;;;;;3.45;1.83;;;;;;;21.57;46.14;94849.38;5049746;28;20033;-75
2020/12/16 10:37:25;;;;;;;2.55;2.00;;;;;;;21.57;46.34;94844.06;5050596;28;20036;-74
2020/12/16 10:39:52;;;;;;;2.92;2.13;;;;;;;21.54;46.34;94841.88;5052496;28;20025;-75
2020/12/16 10:42:17;;;;;;;9.00;1.90;;;;;;;21.51;46.28;94845.84;5049520;28;20123;-76
2020/12/16 10:44:44;;;;;;;3.50;1.55;;;;;;;21.60;46.77;94837.44;5049527;28;20124;-78
2020/12/16 10:47:10;;;;;;;1.67;1.58;;;;;;;21.64;46.20;94839.34;5057945;28;20147;-84
2020/12/16 10:49:36;;;;;;;2.45;1.92;;;;;;;21.66;46.08;94839.09;5065272;28;20072;-89
2020/12/16 10:52:14;;;;;;;4.38;1.85;;;;;;;21.66;46.27;94845.19;5066451;28;20119;-92
2020/12/16 10:54:56;;;;;;;5.32;1.95;;;;;;;21.65;46.26;94827.66;5065240;28;20055;-82
2020/12/16 10:57:21;;;;;;;1.85;1.65;;;;;;;21.66;46.52;94833.78;5060256;28;20033;-87
2020/12/16 10:59:50;;;;;;;2.30;1.77;;;;;;;21.67;46.30;94840.69;5066736;28;20047;-84
2020/12/16 11:02:18;;;;;;;3.40;1.67;;;;;;;21.68;46.17;94836.97;5058007;28;20025;-84
2020/12/16 11:04:52;;;;;;;3.25;2.00;;;;;;;21.66;46.28;94834.56;5058474;28;20156;-88
2020/12/16 11:07:17;;;;;;;3.17;1.63;;;;;;;21.60;46.59;94834.78;5052033;28;20610;-86
2020/12/16 11:09:43;;;;;;;2.08;1.60;;;;;;;21.59;46.82;94834.00;5061762;28;20024;-86
2020/12/16 11:12:09;;;;;;;4.30;1.90;;;;;;;21.57;46.53;94832.63;5058442;28;20029;-87
2020/12/16 11:14:34;;;;;;;2.53;1.63;;;;;;;21.65;46.52;94837.47;5041411;28;20566;-79
2020/12/16 11:17:00;;;;;;;3.35;1.83;;;;;;;21.69;46.63;94833.28;5037608;28;20101;-74
2020/12/16 11:19:27;;;;;;;3.60;1.98;;;;;;;21.70;46.85;94829.56;5024297;28;20048;-81
2020/12/16 11:21:53;;;;;;;2.22;1.85;;;;;;;21.73;46.53;94824.56;5040667;28;20049;-81
2020/12/16 11:24:23;;;;;;;5.07;1.60;;;;;;;21.74;46.49;94825.38;5033972;28;20053;-78
2020/12/16 11:26:50;;;;;;;2.28;1.95;;;;;;;21.73;46.65;94824.56;5038681;28;20029;-84
2020/12/16 11:29:29;;;;;;;;;;;;;;;;;;;;;
2020/12/16 11:31:57;;;;;;;2.72;1.42;;;;;;;21.63;47.01;94828.97;5036227;28;20028;-90
2020/12/16 11:34:25;;;;;;;2.97;1.73;;;;;;;21.63;47.01;94828.97;5034412;28;20091;-91
2020/12/16 11:36:54;;;;;;;2.00;1.80;;;;;;;21.62;46.99;94824.72;5032057;28;20033;-95
2020/12/16 11:39:22;;;;;;;1.83;1.70;;;;;;;21.65;46.95;94832.16;5038363;28;20479;-86
2020/12/16 11:42:35;;;;;;;2.10;1.90;;;;;;;21.61;47.15;94829.22;5037150;28;20126;-89
2020/12/16 11:45:01;;;;;;;1.70;1.60;;;;;;;21.58;47.05;94834.22;5031658;28;20025;-85
2020/12/16 11:47:26;;;;;;;2.05;1.83;;;;;;;21.58;47.23;94827.06;5032526;28;20056;-82
2020/12/16 11:49:52;;;;;;;1.80;1.70;;;;;;;21.60;47.04;94830.28;5036444;28;20032;-84
2020/12/16 11:52:52;;;;;;;1.63;1.45;;;;;;;21.57;47.15;94827.31;5034795;28;20025;-89
2020/12/16 11:55:27;;;;;;;2.00;1.90;;;;;;;21.57;47.24;94822.81;5031035;28;20050;-89
2020/12/16 11:57:52;;;;;;;3.22;1.60;;;;;;;21.59;47.49;94827.88;5038317;28;20111;-87
2020/12/16 12:00:18;;;;;;;1.60;1.50;;;;;;;21.57;47.28;94824.66;5031999;28;20083;-86
2020/12/16 12:03:01;;;;;;;1.85;1.75;;;;;;;21.58;47.38;94826.25;5041248;28;20134;-81
2020/12/16 12:05:48;;;;;;;1.40;1.30;;;;;;;21.70;47.08;94825.06;5034419;28;20086;-83
2020/12/16 12:08:29;;;;;;;2.10;1.80;;;;;;;21.59;47.41;94812.75;4999096;28;20066;-85
2020/12/16 12:11:00;;;;;;;2.13;1.60;;;;;;;21.62;47.26;94819.41;5053807;28;20123;-81
2020/12/16 12:13:46;;;;;;;1.50;1.40;;;;;;;21.72;47.56;94822.97;5056015;28;20036;-77
2020/12/16 12:16:12;;;;;;;;;;;;;;;21.76;47.08;94828.59;5064135;28;20041;-75
2020/12/16 12:18:45;;;;;;;1.80;1.70;;;;;;;21.74;46.96;94825.38;5072919;28;19935;-92
2020/12/16 12:21:23;;;;;;;1.83;1.65;;;;;;;21.73;46.81;94821.09;5041651;28;20075;-88
2020/12/16 12:23:49;;;;;;;2.58;1.50;;;;;;;21.73;47.31;94823.75;5043319;28;20667;-85
2020/12/16 12:26:15;;;;;;;1.65;1.35;;;;;;;21.69;47.01;94820.81;5044964;28;20035;-88
2020/12/16 12:28:40;;;;;;;2.33;1.70;;;;;;;21.76;47.21;94817.97;5045363;28;20075;-82
2020/12/16 12:31:06;;;;;;;2.03;1.58;;;;;;;21.82;47.43;94822.25;5070297;28;20040;-79
2020/12/16 12:33:32;;;;;;;1.98;1.67;;;;;;;21.81;47.12;94816.13;5047756;28;20072;-83
2020/12/16 12:35:59;;;;;;;1.27;1.17;;;;;;;21.79;47.20;94814.78;5033797;28;20116;-92
2020/12/16 12:38:24;;;;;;;5.28;1.52;;;;;;;21.77;47.27;94823.00;5028690;28;20688;-87
2020/12/16 12:40:50;;;;;;;1.45;1.35;;;;;;;21.72;47.12;94814.19;5053722;28;20676;-87
2020/12/16 12:43:19;;;;;;;1.90;1.80;;;;;;;21.70;47.01;94819.75;5049634;28;20057;-82
2020/12/16 12:45:44;;;;;;;1.83;1.48;;;;;;;21.65;47.55;94824.19;5055464;28;20087;-81
2020/12/16 12:48:10;;;;;;;1.48;1.38;;;;;;;21.66;47.08;94833.78;5052760;28;20025;-82
2020/12/16 12:50:36;;;;;;;2.80;1.42;;;;;;;21.63;47.42;94831.63;5055071;28;20510;-81
2020/12/16 12:53:01;;;;;;;1.30;1.20;;;;;;;21.62;47.34;94832.69;5055458;28;20032;-81
2020/12/16 12:55:27;;;;;;;2.15;1.98;;;;;;;21.61;47.19;94836.41;5055364;28;20048;-81
2020/12/16 12:57:52;;;;;;;1.55;1.45;;;;;;;21.59;47.35;94825.22;5055136;28;20044;-81
2020/12/16 13:00:18;;;;;;;1.55;1.45;;;;;;;21.57;47.06;94825.47;5053472;28;20037;-82
2020/12/16 13:02:43;;;;;;;1.40;1.30;;;;;;;21.57;47.17;94825.47;5070191;28;20029;-81
2020/12/16 13:05:10;;;;;;;1.30;1.20;;;;;;;21.54;47.36;94822.50;5055242;28;20369;-81
2020/12/16 13:07:36;;;;;;;1.38;1.27;;;;;;;21.54;47.15;94819.84;5061910;28;20059;-82
2020/12/16 13:10:04;;;;;;;1.40;1.30;;;;;;;21.51;47.42;94821.94;5054376;28;20095;-82
2020/12/16 13:12:30;;;;;;;1.33;1.23;;;;;;;21.51;47.40;94815.84;5061078;28;20044;-82
2020/12/16 13:14:56;;;;;;;2.20;1.35;;;;;;;21.49;47.30;94824.06;5075147;28;20104;-82
2020/12/16 13:17:21;;;;;;;1.40;1.27;;;;;;;21.50;47.10;94812.41;5067348;28;20106;-81
2020/12/16 13:19:48;;;;;;;2.97;1.45;;;;;;;21.48;47.34;94819.81;5054862;28;20037;-81
2020/12/16 13:22:14;;;;;;;1.60;1.50;;;;;;;21.47;47.15;94815.56;5053680;28;20067;-81
2020/12/16 13:24:39;;;;;;;1.20;1.10;;;;;;;21.46;47.13;94811.28;5054092;28;20480;-81
2020/12/16 13:27:05;;;;;;;1.45;1.35;;;;;;;21.46;47.38;94813.13;5054718;28;20120;-81
2020/12/16 13:29:31;;;;;;;1.52;1.42;;;;;;;21.47;47.11;94812.09;5053185;28;20040;-81
2020/12/16 13:31:57;;;;;;;2.13;1.27;;;;;;;21.47;47.17;94815.56;5054372;28;20044;-81
2020/12/16 13:34:22;;;;;;;1.75;1.40;;;;;;;21.49;47.30;94807.34;5053579;28;20034;-81
2020/12/16 13:36:50;;;;;;;2.67;1.17;;;;;;;21.47;47.03;94804.94;5054438;28;20472;-81
2020/12/16 13:39:16;;;;;;;1.40;1.30;;;;;;;21.48;47.04;94803.06;5049949;28;20067;-81
2020/12/16 13:41:44;;;;;;;1.50;1.40;;;;;;;21.47;47.07;94799.63;5068900;28;20465;-81
2020/12/16 13:44:11;;;;;;;1.63;1.30;;;;;;;21.47;47.45;94799.63;5054036;28;20040;-81
2020/12/16 13:46:37;;;;;;;1.55;1.45;;;;;;;21.47;47.23;94804.13;5069343;28;20037;-81
2020/12/16 13:49:04;;;;;;;1.00;1.00;;;;;;;21.46;47.12;94803.31;5052290;28;20037;-81
2020/12/16 13:51:30;;;;;;;1.23;1.15;;;;;;;21.45;47.12;94807.03;5053973;28;20039;-82
2020/12/16 13:53:58;;;;;;;1.10;1.10;;;;;;;21.46;46.97;94803.31;5052545;28;20037;-82
2020/12/16 13:56:30;;;;;;;1.48;1.27;;;;;;;21.45;47.15;94807.03;5052755;28;20404;-82
2020/12/16 13:58:57;;;;;;;1.38;1.27;;;;;;;21.44;47.12;94800.09;5054137;28;20036;-82
2020/12/16 14:01:28;;;;;;;1.25;1.10;;;;;;;21.45;47.08;94809.69;5052933;28;20048;-82
2020/12/16 14:03:53;;;;;;;1.27;1.17;;;;;;;21.44;47.06;94809.94;5053891;28;20495;-82
2020/12/16 14:06:19;;;;;;;1.02;1.02;;;;;;;21.42;47.02;94807.53;5036514;28;20033;-82
2020/12/16 14:08:45;;;;;;;2.53;1.10;;;;;;;21.43;47.25;94805.66;5051608;28;20039;-82
2020/12/16 14:11:12;;;;;;;1.38;1.08;;;;;;;21.45;47.23;94801.72;5051824;28;20032;-81
2020/12/16 14:13:40;;;;;;;1.35;1.25;;;;;;;21.47;47.16;94794.31;5044235;28;20045;-80
2020/12/16 14:16:08;;;;;;;1.50;1.30;;;;;;;21.54;46.94;94798.59;5067327;28;20040;-80
2020/12/16 14:18:35;;;;;;;1.17;1.10;;;;;;;21.56;46.99;94791.19;5052452;28;20040;-80
2020/12/16 14:21:04;;;;;;;;;;;;;;;21.68;46.63;94794.50;5052419;28;20051;-83
2020/12/16 14:23:37;;;;;;;1.60;1.42;;;;;;;21.68;46.73;94792.63;5051950;28;20403;-82
2020/12/16 14:26:05;;;;;;;1.77;1.15;;;;;;;21.74;46.86;94794.28;5060265;28;20131;-85
2020/12/16 14:28:31;;;;;;;1.38;1.27;;;;;;;21.76;46.79;94796.72;5047558;28;20059;-75
2020/12/16 14:30:58;;;;;;;1.90;1.33;;;;;;;21.71;46.92;94789.47;5049946;28;20071;-74
2020/12/16 14:33:26;;;;;;;1.98;1.77;;;;;;;21.76;47.02;94796.72;5056894;28;20074;-91
2020/12/16 14:35:52;;;;;;;1.65;1.55;;;;;;;21.70;47.02;94795.03;5054228;28;20037;-76
2020/12/16 14:38:18;;;;;;;1.80;1.50;;;;;;;21.64;47.18;94794.19;5049540;28;20147;-76
2020/12/16 14:40:48;;;;;;;3.50;1.30;;;;;;;21.64;47.11;94798.69;5048263;28;20033;-76
2020/12/16 14:43:13;;;;;;;1.17;1.17;;;;;;;21.65;47.03;94787.00;5066242;28;20319;-76
2020/12/16 14:45:39;;;;;;;5.90;1.30;;;;;;;21.67;46.88;94790.22;5051118;28;20555;-76
2020/12/16 14:48:06;;;;;;;9.73;8.90;;;;;;;21.35;41.51;94787.53;5050870;28;20031;-81
2020/12/16 14:50:32;;;;;;;;;;;;;;;20.98;42.41;94795.34;5049378;28;20029;-85
2020/12/16 14:52:57;;;;;;;6.20;5.60;;;;;;;21.16;43.92;94792.34;5064321;28;20051;-77
2020/12/16 14:55:23;;;;;;;6.82;5.55;;;;;;;21.31;44.00;94795.19;5046237;28;20397;-80
2020/12/16 14:57:49;;;;;;;5.68;4.75;;;;;;;21.43;44.46;94789.75;5042937;28;20068;-75
2020/12/16 15:00:18;;;;;;;7.60;4.47;;;;;;;21.56;44.58;94794.66;5044355;28;20060;-74
2020/12/16 15:02:44;;;;;;;4.22;3.83;;;;;;;21.64;44.83;94793.38;5043646;28;20495;-75
2020/12/16 15:05:10;;;;;;;4.45;4.05;;;;;;;21.71;44.84;94794.00;5040948;28;20040;-75
2020/12/16 15:07:36;;;;;;;7.25;3.58;;;;;;;21.78;45.06;94791.91;5045809;28;20040;-75
2020/12/16 15:10:04;;;;;;;3.33;3.08;;;;;;;21.84;44.92;94793.56;5042165;28;20029;-75
2020/12/16 15:12:30;;;;;;;3.80;3.38;;;;;;;21.88;45.21;94784.06;5043049;28;20037;-75
2020/12/16 15:14:55;;;;;;;3.42;3.15;;;;;;;21.87;45.35;94782.44;5045158;28;20068;-76
2020/12/16 15:17:21;;;;;;;7.38;4.40;;;;;;;21.87;45.43;94782.44;5045541;28;20037;-76
2020/12/16 15:19:47;;;;;;;4.22;3.80;;;;;;;21.87;45.47;94787.75;5042166;28;20614;-73
2020/12/16 15:22:13;;;;;;;7.22;3.47;;;;;;;21.94;45.70;94785.69;5044952;28;20033;-84
2020/12/16 15:24:39;;;;;;;9.45;3.13;;;;;;;22.01;45.85;94794.25;5049756;28;20029;-81
2020/12/16 15:27:05;;;;;;;7.20;3.30;;;;;;;22.06;45.70;94791.66;5045181;28;20041;-74
2020/12/16 15:29:30;;;;;;;6.70;3.70;;;;;;;22.07;45.14;94793.25;5042243;28;20380;-76
2020/12/16 15:31:56;;;;;;;7.53;4.10;;;;;;;22.07;45.60;94793.25;5045263;28;20396;-74
2020/12/16 15:34:23;;;;;;;3.63;3.00;;;;;;;22.11;45.22;94794.34;5042364;28;20049;-78
2020/12/16 15:37:00;;;;;;;3.97;3.15;;;;;;;22.13;45.45;94802.84;5029220;28;20283;-79
2020/12/16 15:39:27;;;;;;;5.67;3.30;;;;;;;22.17;45.76;94798.63;5028560;28;20041;-74
2020/12/16 15:41:54;;;;;;;3.38;3.08;;;;;;;22.16;45.78;94802.34;5043999;28;20043;-74
2020/12/16 15:44:19;;;;;;;3.85;2.92;;;;;;;22.14;46.07;94795.69;5028147;28;20048;-77
2020/12/16 15:47:18;;;;;;;4.82;2.70;;;;;;;22.13;45.94;94797.53;5029047;28;20176;-83
2020/12/16 15:49:43;;;;;;;3.45;3.15;;;;;;;22.11;45.76;94802.34;5030512;28;20079;-81
2020/12/16 15:52:10;;;;;;;8.45;2.95;;;;;;;22.11;45.71;94802.34;5029690;28;20041;-80
2020/12/16 15:54:45;;;;;;;7.90;2.97;;;;;;;22.09;46.18;94801.78;5051044;28;20040;-80
2020/12/16 15:57:11;;;;;;;5.90;3.15;;;;;;;22.10;46.51;94803.38;5057415;28;20502;-79
2020/12/16 15:59:38;;;;;;;4.88;3.05;;;;;;;22.07;46.01;94798.56;5014371;28;20066;-80
2020/12/16 16:02:05;;;;;;;4.13;3.67;;;;;;;22.04;46.54;94803.59;4987115;28;821334;-77
2020/12/16 16:04:34;;;;;;;3.25;2.90;;;;;;;22.02;46.35;94803.84;5043762;28;20512;-76
2020/12/16 16:07:01;;;;;;;4.45;2.78;;;;;;;22.03;46.74;94802.78;5027040;28;20064;-76
2020/12/16 16:09:44;;;;;;;6.40;2.50;;;;;;;21.99;46.29;94801.72;5025650;28;20114;-78
2020/12/16 16:12:10;;;;;;;3.70;2.33;;;;;;;22.00;46.32;94803.31;5028290;28;20029;-79
2020/12/16 16:14:37;;;;;;;4.65;3.70;;;;;;;22.02;46.56;94801.19;5031358;28;20049;-80
2020/12/16 16:17:02;;;;;;;4.65;3.00;;;;;;;22.07;46.27;94803.88;5050115;28;20171;-81
2020/12/16 16:19:30;;;;;;;5.80;3.77;;;;;;;22.10;46.49;94810.56;5018824;28;20084;-79
2020/12/16 16:21:56;;;;;;;3.88;2.67;;;;;;;22.12;46.57;94811.13;5030186;28;20371;-81
2020/12/16 16:24:22;;;;;;;5.80;2.90;;;;;;;22.14;46.72;94807.13;5028804;28;20049;-80
2020/12/16 16:26:52;;;;;;;3.10;2.80;;;;;;;22.12;46.31;94806.59;5029685;28;20037;-78
2020/12/16 16:29:19;;;;;;;5.72;3.03;;;;;;;22.12;46.98;94811.91;5046340;28;20049;-77
2020/12/16 16:31:44;;;;;;;4.25;2.63;;;;;;;22.15;46.82;94806.06;5028574;28;20040;-84
2020/12/16 16:34:10;;;;;;;5.15;2.60;;;;;;;22.08;47.11;94808.16;5033441;28;20037;-81
2020/12/16 16:36:36;;;;;;;8.13;2.80;;;;;;;21.94;46.84;94793.66;5031053;28;20116;-75
2020/12/16 16:39:04;;;;;;;4.32;4.03;;;;;;;21.06;38.98;94800.19;5045746;28;20025;-81
2020/12/16 16:41:30;;;;;;;4.65;4.25;;;;;;;20.46;40.61;94806.31;5029405;28;20088;-83
2020/12/16 16:43:56;;;;;;;3.42;3.15;;;;;;;20.85;41.25;94801.81;5048382;28;20748;-82
2020/12/16 16:46:22;;;;;;;4.40;3.20;;;;;;;21.05;42.08;94796.72;5047646;28;20377;-78
2020/12/16 16:48:51;;;;;;;5.47;3.42;;;;;;;21.20;42.21;94804.09;5031024;28;20065;-81
2020/12/16 16:51:18;;;;;;;3.20;3.00;;;;;;;21.28;42.15;94798.34;5012655;28;20038;-85
2020/12/16 16:54:01;;;;;;;5.53;2.97;;;;;;;21.35;42.88;94801.63;5031668;28;20022;-85
2020/12/16 16:56:32;;;;;;;3.60;3.30;;;;;;;21.37;42.94;94809.34;5029956;28;20076;-83
2020/12/16 16:58:59;;;;;;;2.97;2.42;;;;;;;21.42;43.39;94806.72;5031597;28;20029;-82
2020/12/16 17:01:45;;;;;;;;;;;;;;;21.40;43.87;94808.81;5031655;28;20036;-82
2020/12/16 17:04:14;;;;;;;5.07;2.97;;;;;;;21.45;43.98;94815.00;5045953;28;19917;-84
2020/12/16 17:06:42;;;;;;;3.08;2.83;;;;;;;21.48;44.02;94814.50;5047890;28;20163;-82
2020/12/16 17:09:10;;;;;;;3.80;2.45;;;;;;;21.50;44.15;94809.75;5048380;28;20053;-83
2020/12/16 17:11:41;;;;;;;3.03;2.83;;;;;;;21.52;44.33;94817.44;5031862;28;20035;-82
2020/12/16 17:14:07;;;;;;;2.47;2.30;;;;;;;21.52;44.71;94814.78;5029346;28;20025;-79
2020/12/16 17:16:34;;;;;;;3.00;2.70;;;;;;;21.53;44.69;94827.00;5047203;28;20025;-82
2020/12/16 17:19:00;;;;;;;;;;;;;;;21.55;44.76;94832.06;5029665;28;20025;-79
2020/12/16 17:21:26;;;;;;;3.17;2.40;;;;;;;21.59;44.73;94830.53;5030098;28;19932;-77
2020/12/16 17:24:01;;;;;;;2.28;2.08;;;;;;;21.60;45.00;94837.44;5043895;28;20496;-79
2020/12/16 17:26:29;;;;;;;4.07;2.63;;;;;;;21.64;44.70;94836.69;5027034;28;20041;-84
2020/12/16 17:28:57;;;;;;;4.05;2.38;;;;;;;21.62;45.08;94833.50;5031994;28;20128;-82
2020/12/16 17:31:25;;;;;;;2.63;2.42;;;;;;;21.66;45.08;94844.41;5037969;28;20026;-82
2020/12/16 17:34:09;;;;;;;2.85;2.65;;;;;;;21.67;44.98;94841.50;5050568;28;20057;-86
2020/12/16 17:36:36;;;;;;;2.10;2.00;;;;;;;21.70;45.35;94850.81;5031401;28;20398;-87
2020/12/16 17:39:45;;;;;;;2.58;2.38;;;;;;;21.67;45.24;94846.00;5033035;28;20539;-84
2020/12/16 17:42:10;;;;;;;3.58;3.08;;;;;;;21.71;45.08;94852.44;5031888;28;20065;-85
2020/12/16 17:44:37;;;;;;;4.47;2.30;;;;;;;21.70;45.28;94856.94;5030845;28;20723;-87
2020/12/16 17:47:05;;;;;;;2.53;2.30;;;;;;;21.74;45.22;94859.91;5032390;28;20037;-86
2020/12/16 17:49:31;;;;;;;2.42;2.15;;;;;;;21.73;45.61;94859.09;5030477;28;20057;-81
2020/12/16 17:51:57;;;;;;;2.50;2.30;;;;;;;21.71;45.57;94858.53;5028382;28;20031;-82
2020/12/16 17:54:23;;;;;;;2.25;2.10;;;;;;;21.75;45.52;94858.84;5027047;28;20783;-77
2020/12/16 17:56:49;;;;;;;2.75;2.55;;;;;;;21.73;45.53;94868.91;5029858;28;20049;-77
2020/12/16 17:59:16;;;;;;;3.00;2.67;;;;;;;21.69;45.76;94878.44;5028298;28;20029;-76
2020/12/16 18:01:42;;;;;;;2.33;2.22;;;;;;;21.67;45.67;94872.56;5024872;28;20032;-78
2020/12/16 18:04:07;;;;;;;4.07;2.25;;;;;;;21.66;45.75;94876.28;5031369;28;20033;-77
2020/12/16 18:06:33;;;;;;;2.03;1.92;;;;;;;21.64;45.79;94875.72;5026734;28;20045;-75
2020/12/16 18:08:59;;;;;;;2.20;1.77;;;;;;;21.62;46.26;94883.16;5027871;28;20080;-75
2020/12/16 18:11:28;;;;;;;2.47;2.28;;;;;;;21.61;45.95;94879.69;5026103;28;20380;-76
2020/12/16 18:13:54;;;;;;;2.35;2.15;;;;;;;21.59;45.89;94878.34;5026966;28;20029;-75
2020/12/16 18:16:20;;;;;;;3.22;2.10;;;;;;;21.57;45.96;94875.91;5043204;28;20045;-78
2020/12/16 18:18:46;;;;;;;2.50;2.05;;;;;;;21.58;46.14;94884.69;5027661;28;20032;-78
2020/12/16 18:21:12;;;;;;;2.55;2.35;;;;;;;21.57;46.36;94877.78;5027690;28;20499;-80
2020/12/16 18:23:37;;;;;;;2.20;1.98;;;;;;;21.55;46.17;94885.19;5029444;28;20037;-78
2020/12/16 18:26:03;;;;;;;2.80;2.60;;;;;;;21.54;46.40;94880.91;5028417;28;20124;-75
2020/12/16 18:28:29;;;;;;;3.47;2.00;;;;;;;21.55;45.92;94879.88;5029317;28;20090;-82
2020/12/16 18:30:54;;;;;;;2.65;2.40;;;;;;;21.52;46.13;94876.66;5027854;28;20030;-77
2020/12/16 18:33:26;;;;;;;2.50;2.30;;;;;;;21.52;46.43;94867.88;5042231;28;20029;-79
2020/12/16 18:35:53;;;;;;;1.98;1.88;;;;;;;21.51;46.46;94867.09;5043955;28;20040;-82
2020/12/16 18:38:19;;;;;;;2.38;2.08;;;;;;;21.50;46.10;94867.38;5030154;28;20029;-76
2020/12/16 18:40:45;;;;;;;3.25;2.00;;;;;;;21.50;46.39;94862.03;5028107;28;20069;-78
2020/12/16 18:43:11;;;;;;;2.28;2.13;;;;;;;21.50;46.32;94865.50;5024798;28;20041;-80
2020/12/16 18:45:37;;;;;;;2.25;2.05;;;;;;;21.48;46.35;94864.94;5023648;28;20046;-76
2020/12/16 18:48:02;;;;;;;7.40;2.63;;;;;;;21.47;46.61;94860.69;5023580;28;20036;-74
2020/12/16 18:50:28;;;;;;;2.75;2.42;;;;;;;21.47;46.61;94852.72;5027451;28;20026;-76
2020/12/16 18:52:54;;;;;;;2.22;2.00;;;;;;;21.48;46.29;94858.84;5024733;28;20032;-77